Time;durP1;ratioP1;P1;durP2;ratioP2;P2;SDS_P1;SDS_P2;PMS_P1;PMS_P2;Temp;Humidity;BMP_temperature;BMP_pressure;BME280_temperature;BME280_humidity;BME280_pressure;Samples;Min_cycle;Max_cycle;Signal;HPM_P1;HPM_P2
2023/06/23 00:02:25;;;;;;;8.45;5.05;;;25.60;96.70;;;;;;4890143;29;21036;-68
2023/06/23 00:04:53;;;;;;;9.73;4.90;;;25.50;96.70;;;;;;4901082;29;20054;-68
2023/06/23 00:07:21;;;;;;;7.75;4.55;;;24.90;96.70;;;;;;4914260;29;20051;-68
2023/06/23 00:09:49;;;;;;;6.25;4.40;;;24.60;96.70;;;;;;4916283;29;20062;-68
2023/06/23 00:12:19;;;;;;;8.93;5.03;;;24.90;96.70;;;;;;4916723;29;20055;-68
2023/06/23 00:14:48;;;;;;;8.05;4.85;;;24.80;96.70;;;;;;4915363;29;20044;-68
2023/06/23 00:17:16;;;;;;;7.18;4.85;;;24.50;96.70;;;;;;4894664;29;20044;-68
2023/06/23 00:19:44;;;;;;;6.25;4.85;;;24.50;96.70;;;;;;4912658;29;20071;-68
2023/06/23 00:22:12;;;;;;;6.97;4.03;;;24.20;96.70;;;;;;4909109;29;20441;-68
2023/06/23 00:24:40;;;;;;;8.07;4.38;;;24.10;96.70;;;;;;4895804;29;20384;-69
2023/06/23 00:27:09;;;;;;;8.20;4.25;;;24.10;96.70;;;;;;4882622;29;20722;-68
2023/06/23 00:29:37;;;;;;;5.57;4.10;;;24.10;96.70;;;;;;4912695;29;20127;-68
2023/06/23 00:32:08;;;;;;;6.70;3.92;;;24.20;96.70;;;;;;4913595;29;20207;-68
2023/06/23 00:34:36;;;;;;;6.32;3.60;;;23.90;96.70;;;;;;4912886;29;20066;-68
2023/06/23 00:37:04;;;;;;;6.97;4.22;;;23.70;96.70;;;;;;4912779;29;20670;-69
2023/06/23 00:39:45;;;;;;;4.53;3.80;;;23.80;96.70;;;;;;4912615;29;20122;-68
2023/06/23 00:42:13;;;;;;;6.93;3.75;;;23.90;96.70;;;;;;4909837;29;20063;-68
2023/06/23 00:44:41;;;;;;;7.20;4.57;;;24.20;96.70;;;;;;4896397;29;20056;-68
2023/06/23 00:47:11;;;;;;;4.95;4.05;;;24.40;96.70;;;;;;4915722;29;20121;-68
2023/06/23 00:49:40;;;;;;;6.68;3.95;;;24.60;96.70;;;;;;4900744;29;20833;-68
2023/06/23 00:52:10;;;;;;;4.43;3.50;;;24.80;96.70;;;;;;4914399;29;20047;-68
2023/06/23 00:54:38;;;;;;;6.50;4.25;;;24.90;96.70;;;;;;4915019;29;20539;-68
2023/06/23 00:57:06;;;;;;;12.38;4.25;;;25.00;96.70;;;;;;4901277;29;20052;-68
2023/06/23 00:59:34;;;;;;;5.03;3.53;;;25.00;96.70;;;;;;4916288;29;20055;-68
2023/06/23 01:02:03;;;;;;;5.15;3.70;;;25.10;96.70;;;;;;4911289;29;20044;-68
2023/06/23 01:04:33;;;;;;;7.70;4.32;;;25.20;96.70;;;;;;4912854;29;20043;-67
2023/06/23 01:07:14;;;;;;;6.18;4.22;;;25.30;96.70;;;;;;4911047;29;20056;-68
2023/06/23 01:09:49;;;;;;;5.68;3.50;;;25.30;96.70;;;;;;4917675;29;20047;-68
2023/06/23 01:12:27;;;;;;;7.03;3.85;;;25.40;96.70;;;;;;4917049;29;20199;-68
2023/06/23 01:15:04;;;;;;;6.32;4.20;;;25.40;96.70;;;;;;4896929;29;20477;-68
2023/06/23 01:17:36;;;;;;;5.00;3.90;;;25.30;96.70;;;;;;4915806;29;20063;-68
2023/06/23 01:20:20;;;;;;;6.70;4.10;;;25.30;96.70;;;;;;4914558;29;20076;-68
2023/06/23 01:23:08;;;;;;;6.63;4.20;;;25.20;96.70;;;;;;4907181;29;20643;-68
2023/06/23 01:25:46;;;;;;;6.00;4.07;;;25.00;96.70;;;;;;4894663;29;20074;-67
2023/06/23 01:28:41;;;;;;;7.55;3.72;;;24.80;96.70;;;;;;4894399;29;20196;-68
2023/06/23 01:31:13;;;;;;;7.65;4.28;;;24.70;96.70;;;;;;4913208;29;20056;-67
2023/06/23 01:33:48;;;;;;;6.95;4.40;;;24.80;96.70;;;;;;4906388;29;20088;-68
2023/06/23 01:36:26;;;;;;;7.28;4.22;;;24.70;96.70;;;;;;4894524;29;20054;-69
2023/06/23 01:39:03;;;;;;;5.22;3.78;;;24.90;96.70;;;;;;4911717;29;20142;-68
2023/06/23 01:41:38;;;;;;;5.72;3.83;;;25.00;96.70;;;;;;4899523;29;20526;-68
2023/06/23 01:44:14;;;;;;;6.53;4.25;;;25.20;96.70;;;;;;4911828;29;20048;-68
2023/06/23 01:46:46;;;;;;;6.65;4.93;;;25.20;96.70;;;;;;4892074;29;20659;-68
2023/06/23 01:49:51;;;;;;;6.03;4.35;;;25.20;96.70;;;;;;4912083;29;20351;-68
2023/06/23 01:52:21;;;;;;;6.43;3.92;;;25.00;96.70;;;;;;4912039;29;20139;-68
2023/06/23 01:54:49;;;;;;;5.65;4.20;;;25.10;96.70;;;;;;4910448;29;20047;-68
2023/06/23 01:57:19;;;;;;;6.15;4.30;;;25.20;96.70;;;;;;4896438;29;20443;-68
2023/06/23 01:59:51;;;;;;;5.97;3.72;;;25.20;96.70;;;;;;4910576;29;20051;-68
2023/06/23 02:02:21;;;;;;;6.53;3.60;;;25.20;96.70;;;;;;4908444;29;20051;-66
2023/06/23 02:04:50;;;;;;;7.40;4.05;;;25.20;96.70;;;;;;4889332;29;20874;-67
2023/06/23 02:07:19;;;;;;;5.55;3.72;;;25.30;96.70;;;;;;4910663;29;20048;-67
2023/06/23 02:09:49;;;;;;;5.40;3.70;;;25.30;96.70;;;;;;4911496;29;20183;-67
2023/06/23 02:12:18;;;;;;;5.65;3.40;;;25.30;96.70;;;;;;4898607;29;20062;-68
2023/06/23 02:14:49;;;;;;;6.28;3.97;;;25.20;96.70;;;;;;4922457;29;20586;-67
2023/06/23 02:17:21;;;;;;;4.78;3.88;;;25.20;96.70;;;;;;4920201;29;20043;-67
2023/06/23 02:19:51;;;;;;;6.93;3.60;;;25.20;96.70;;;;;;4931968;29;20498;-67
2023/06/23 02:22:28;;;;;;;5.78;3.50;;;25.10;96.70;;;;;;4931040;29;20059;-67
2023/06/23 02:24:58;;;;;;;5.72;3.20;;;25.00;96.70;;;;;;4929970;29;20650;-67
2023/06/23 02:27:27;;;;;;;4.85;3.13;;;24.90;96.70;;;;;;4918061;29;20569;-67
2023/06/23 02:30:00;;;;;;;5.80;3.60;;;25.00;96.70;;;;;;4930774;29;20407;-67
2023/06/23 02:32:28;;;;;;;6.75;4.13;;;25.10;96.70;;;;;;4929967;29;20050;-68
2023/06/23 02:34:58;;;;;;;4.78;3.55;;;24.90;96.70;;;;;;4926697;29;20039;-68
2023/06/23 02:37:28;;;;;;;6.32;3.67;;;25.00;96.70;;;;;;4930773;29;20043;-67
2023/06/23 02:39:58;;;;;;;5.65;3.47;;;25.00;96.70;;;;;;4930974;28;20044;-67
2023/06/23 02:42:32;;;;;;;6.45;3.70;;;24.90;96.70;;;;;;4932024;29;20057;-67
2023/06/23 02:45:05;;;;;;;3.70;3.10;;;24.90;96.70;;;;;;4931459;28;20059;-67
2023/06/23 02:47:38;;;;;;;6.40;3.65;;;24.90;96.70;;;;;;4932723;29;20090;-67
2023/06/23 02:50:14;;;;;;;6.53;3.47;;;25.00;96.70;;;;;;4930458;28;21433;-67
2023/06/23 02:52:45;;;;;;;7.35;3.58;;;25.10;96.70;;;;;;4933689;29;20047;-67
2023/06/23 02:55:18;;;;;;;7.50;3.50;;;25.10;96.70;;;;;;4928771;28;20470;-67
2023/06/23 02:57:51;;;;;;;4.90;3.20;;;25.10;96.70;;;;;;4930346;29;20050;-67
2023/06/23 03:00:24;;;;;;;4.55;3.22;;;25.20;96.70;;;;;;4917974;29;20505;-68
2023/06/23 03:02:57;;;;;;;8.95;3.38;;;25.10;96.70;;;;;;4925659;29;20057;-68
2023/06/23 03:05:26;;;;;;;5.30;3.70;;;24.90;96.70;;;;;;4907156;29;20131;-68
2023/06/23 03:07:54;;;;;;;6.97;4.05;;;24.80;96.70;;;;;;4930226;29;20095;-68
2023/06/23 03:10:22;;;;;;;4.43;3.15;;;24.70;96.70;;;;;;4930288;28;20501;-68
2023/06/23 03:12:51;;;;;;;6.65;3.78;;;24.70;96.70;;;;;;4932145;29;20046;-68
2023/06/23 03:15:19;;;;;;;6.57;3.97;;;24.70;96.70;;;;;;4925938;29;20067;-68
2023/06/23 03:17:51;;;;;;;5.18;3.30;;;24.70;96.70;;;;;;4932252;29;20688;-67
2023/06/23 03:20:24;;;;;;;5.40;4.13;;;24.60;96.70;;;;;;4936012;28;20047;-68
2023/06/23 03:22:57;;;;;;;5.32;3.63;;;24.60;96.70;;;;;;4908673;29;20059;-68
2023/06/23 03:25:28;;;;;;;5.10;3.63;;;24.70;96.70;;;;;;4917515;29;20063;-68
2023/06/23 03:27:58;;;;;;;5.75;4.30;;;24.70;96.70;;;;;;4920253;29;20044;-68
2023/06/23 03:30:33;;;;;;;6.00;3.50;;;24.80;96.70;;;;;;4921370;29;20134;-68
2023/06/23 03:33:11;;;;;;;6.82;4.18;;;24.80;96.70;;;;;;4934183;29;20067;-68
2023/06/23 03:35:44;;;;;;;3.60;3.17;;;24.80;96.70;;;;;;4928476;29;20050;-68
2023/06/23 03:38:35;;;;;;;5.95;3.58;;;24.80;96.70;;;;;;4931693;29;20043;-69
2023/06/23 03:41:08;;;;;;;6.35;3.40;;;24.90;96.70;;;;;;4934736;29;20069;-67
2023/06/23 03:43:41;;;;;;;5.93;3.30;;;24.80;96.70;;;;;;4917204;29;20088;-67
2023/06/23 03:46:18;;;;;;;5.95;3.50;;;24.80;96.70;;;;;;4925243;29;20620;-67
2023/06/23 03:49:10;;;;;;;5.05;3.70;;;24.80;96.70;;;;;;4928011;29;20044;-67
2023/06/23 03:51:41;;;;;;;6.47;3.60;;;24.70;96.70;;;;;;4915374;29;20057;-67
2023/06/23 03:54:12;;;;;;;6.68;3.38;;;24.70;96.70;;;;;;4936474;29;20040;-67
2023/06/23 03:56:41;;;;;;;5.13;3.78;;;24.80;96.70;;;;;;4931681;29;20052;-67
2023/06/23 03:59:12;;;;;;;5.57;3.83;;;24.90;96.70;;;;;;4900688;29;20090;-67
2023/06/23 04:01:44;;;;;;;5.90;3.92;;;24.80;96.70;;;;;;4893337;29;21795;-67
2023/06/23 04:04:17;;;;;;;7.47;3.60;;;24.90;96.70;;;;;;4915618;29;20040;-67
2023/06/23 04:06:48;;;;;;;6.03;3.90;;;24.90;96.70;;;;;;4910791;29;20096;-67
2023/06/23 04:09:19;;;;;;;6.18;4.43;;;24.90;96.70;;;;;;4902909;29;20248;-67
2023/06/23 04:11:50;;;;;;;6.47;3.70;;;24.70;96.70;;;;;;4917857;29;20091;-67
2023/06/23 04:14:19;;;;;;;4.85;3.70;;;24.50;96.70;;;;;;4914695;29;20135;-67
2023/06/23 04:16:49;;;;;;;5.38;3.67;;;24.50;96.70;;;;;;4918130;29;20048;-67
2023/06/23 04:19:22;;;;;;;4.47;3.65;;;24.50;96.70;;;;;;4918068;29;20067;-67
2023/06/23 04:21:51;;;;;;;7.15;3.85;;;24.50;96.70;;;;;;4915691;29;20095;-67
2023/06/23 04:24:21;;;;;;;5.05;3.92;;;24.50;96.70;;;;;;4909460;29;20048;-67
2023/06/23 04:26:52;;;;;;;4.70;3.67;;;24.50;96.70;;;;;;4915651;29;21186;-67
2023/06/23 04:29:23;;;;;;;8.23;4.00;;;24.50;96.70;;;;;;4915816;29;20047;-67
2023/06/23 04:31:54;;;;;;;5.32;4.15;;;24.50;96.70;;;;;;4918811;29;20044;-67
2023/06/23 04:34:26;;;;;;;7.95;4.53;;;24.50;96.70;;;;;;4915205;29;20111;-67
2023/06/23 04:37:01;;;;;;;4.28;3.88;;;24.60;96.70;;;;;;4920091;29;20678;-66
2023/06/23 04:39:36;;;;;;;4.65;3.88;;;24.60;96.70;;;;;;4916239;29;20122;-67
2023/06/23 04:42:09;;;;;;;5.32;4.28;;;24.60;96.70;;;;;;4921239;29;20058;-67
2023/06/23 04:44:43;;;;;;;5.78;4.47;;;24.60;96.70;;;;;;4916100;29;20043;-67
2023/06/23 04:47:12;;;;;;;6.88;3.95;;;24.60;96.70;;;;;;4903974;29;20138;-67
2023/06/23 04:49:45;;;;;;;7.28;4.30;;;24.70;96.70;;;;;;4897534;29;20044;-67
2023/06/23 04:52:16;;;;;;;6.65;4.00;;;24.60;96.70;;;;;;4906848;29;20503;-67
2023/06/23 04:54:48;;;;;;;5.80;4.22;;;24.60;96.70;;;;;;4911468;29;20384;-67
2023/06/23 04:57:21;;;;;;;7.60;4.60;;;24.60;96.70;;;;;;4914241;29;20479;-67
2023/06/23 04:59:54;;;;;;;7.38;4.57;;;24.70;96.70;;;;;;4936460;28;20051;-67
2023/06/23 05:02:25;;;;;;;8.30;4.90;;;24.50;96.70;;;;;;4934681;29;20125;-67
2023/06/23 05:05:14;;;;;;;5.90;4.55;;;24.50;96.70;;;;;;4936454;28;20122;-67
2023/06/23 05:07:43;;;;;;;5.70;4.20;;;24.50;96.70;;;;;;4930474;29;20123;-67
2023/06/23 05:10:13;;;;;;;10.18;5.10;;;24.50;96.70;;;;;;4936038;28;20138;-67
2023/06/23 05:12:42;;;;;;;7.03;4.60;;;24.60;96.70;;;;;;4936645;29;20039;-67
2023/06/23 05:15:16;;;;;;;8.60;4.63;;;24.70;96.70;;;;;;4933184;29;20055;-67
2023/06/23 05:17:47;;;;;;;5.95;4.38;;;24.80;96.70;;;;;;4930747;29;20135;-67
2023/06/23 05:20:19;;;;;;;8.00;4.57;;;24.80;96.70;;;;;;4931900;29;20410;-67
2023/06/23 05:23:05;;;;;;;7.50;4.65;;;24.90;96.70;;;;;;4916010;29;20051;-67
2023/06/23 05:25:36;;;;;;;5.80;4.32;;;25.10;96.70;;;;;;4916599;29;20057;-67
2023/06/23 05:28:05;;;;;;;5.72;4.22;;;25.10;96.70;;;;;;4934036;29;20046;-67
2023/06/23 05:30:36;;;;;;;7.15;5.18;;;25.20;96.70;;;;;;4929021;29;20070;-67
2023/06/23 05:33:07;;;;;;;7.35;5.40;;;25.30;96.70;;;;;;4918011;29;20078;-67
2023/06/23 05:35:39;;;;;;;10.75;4.80;;;25.20;96.70;;;;;;4939123;29;20920;-67
2023/06/23 05:38:09;;;;;;;9.25;4.50;;;25.20;96.70;;;;;;4933399;28;20118;-67
2023/06/23 05:40:37;;;;;;;7.38;4.90;;;25.20;96.70;;;;;;4934681;28;20135;-67
2023/06/23 05:43:06;;;;;;;7.50;5.28;;;25.30;96.70;;;;;;4935511;29;20293;-67
2023/06/23 05:45:34;;;;;;;7.45;5.57;;;25.30;96.70;;;;;;4926700;29;20051;-67
2023/06/23 05:48:08;;;;;;;7.82;5.75;;;25.30;96.70;;;;;;4936214;29;20493;-66
2023/06/23 05:50:40;;;;;;;9.68;5.30;;;25.40;96.70;;;;;;4934464;28;20048;-67
2023/06/23 05:53:15;;;;;;;9.00;5.30;;;25.40;96.70;;;;;;4929132;29;20051;-67
2023/06/23 05:55:55;;;;;;;6.43;5.40;;;25.40;96.70;;;;;;4933525;28;20047;-67
2023/06/23 05:58:28;;;;;;;6.55;5.20;;;25.50;96.70;;;;;;4933314;29;20043;-67
2023/06/23 06:00:58;;;;;;;8.77;5.25;;;25.50;96.70;;;;;;4933065;28;20061;-67
2023/06/23 06:03:36;;;;;;;10.43;5.85;;;25.60;96.70;;;;;;4932759;29;20074;-67
2023/06/23 06:06:07;;;;;;;12.80;5.60;;;25.60;96.70;;;;;;4930989;29;20561;-66
2023/06/23 06:09:10;;;;;;;7.68;5.32;;;25.60;96.70;;;;;;4936217;29;20417;-67
2023/06/23 06:11:41;;;;;;;9.77;5.40;;;25.50;96.70;;;;;;4936650;29;20047;-68
2023/06/23 06:14:11;;;;;;;16.25;7.25;;;25.60;96.70;;;;;;4934683;29;20087;-68
2023/06/23 06:16:42;;;;;;;8.82;5.78;;;25.70;96.70;;;;;;4933928;29;20462;-68
2023/06/23 06:19:11;;;;;;;7.95;5.55;;;25.70;96.70;;;;;;4930780;29;20084;-68
2023/06/23 06:21:43;;;;;;;9.15;5.50;;;25.80;96.70;;;;;;4931284;29;20052;-68
2023/06/23 06:24:13;;;;;;;8.82;5.65;;;25.80;96.70;;;;;;4925309;29;20046;-68
2023/06/23 06:26:43;;;;;;;9.75;6.10;;;25.90;96.70;;;;;;4932555;29;20043;-68
2023/06/23 06:29:14;;;;;;;10.60;5.97;;;25.90;96.70;;;;;;4911439;29;20050;-68
2023/06/23 06:31:47;;;;;;;12.00;6.18;;;26.00;96.70;;;;;;4934384;29;20130;-68
2023/06/23 06:34:18;;;;;;;10.32;6.57;;;26.00;96.70;;;;;;4931962;29;20095;-71
2023/06/23 06:36:48;;;;;;;10.93;6.20;;;26.00;96.70;;;;;;4924283;29;20052;-72
2023/06/23 06:39:16;;;;;;;10.60;6.10;;;26.00;96.70;;;;;;4923573;29;20055;-72
2023/06/23 06:41:46;;;;;;;11.65;5.85;;;26.00;96.70;;;;;;4915350;29;20561;-72
2023/06/23 06:44:15;;;;;;;10.38;5.80;;;26.00;96.70;;;;;;4904029;29;20067;-73
2023/06/23 06:46:45;;;;;;;12.15;6.05;;;26.00;96.70;;;;;;4925432;29;20644;-71
2023/06/23 06:49:14;;;;;;;11.50;6.18;;;25.90;96.70;;;;;;4925222;29;20467;-71
2023/06/23 06:51:44;;;;;;;13.02;6.88;;;26.00;96.70;;;;;;4926018;29;20058;-72
2023/06/23 06:54:15;;;;;;;10.55;6.22;;;26.00;96.70;;;;;;4928499;29;20717;-68
2023/06/23 06:56:56;;;;;;;9.52;5.85;;;26.10;96.70;;;;;;4916822;29;20142;-68
2023/06/23 06:59:24;;;;;;;19.80;8.00;;;26.00;96.70;;;;;;4928901;29;20115;-69
2023/06/23 07:01:55;;;;;;;12.80;5.90;;;26.00;96.70;;;;;;4925768;29;20103;-69
2023/06/23 07:04:25;;;;;;;11.98;5.82;;;26.00;96.70;;;;;;4928509;29;20079;-68
2023/06/23 07:06:53;;;;;;;12.60;6.47;;;26.20;96.70;;;;;;4933787;29;20645;-68
2023/06/23 07:09:22;;;;;;;10.73;5.80;;;26.30;96.70;;;;;;4928364;29;20475;-71
2023/06/23 07:11:50;;;;;;;13.80;5.63;;;26.40;96.70;;;;;;4928785;29;20051;-71
2023/06/23 07:14:18;;;;;;;16.65;6.53;;;26.50;96.70;;;;;;4927247;29;20467;-71
2023/06/23 07:16:46;;;;;;;13.57;6.53;;;26.60;96.70;;;;;;4928410;29;20142;-68
2023/06/23 07:19:14;;;;;;;12.02;6.15;;;26.60;96.70;;;;;;4911166;29;20067;-68
2023/06/23 07:21:42;;;;;;;11.63;6.22;;;26.60;96.70;;;;;;4928510;29;20044;-69
2023/06/23 07:24:10;;;;;;;12.93;5.78;;;26.70;96.70;;;;;;4931235;28;20071;-73
2023/06/23 07:26:40;;;;;;;16.58;6.63;;;26.80;96.70;;;;;;4932146;29;20043;-72
2023/06/23 07:29:08;;;;;;;15.98;6.43;;;26.80;96.70;;;;;;4927969;29;20074;-72
2023/06/23 07:31:39;;;;;;;17.85;5.88;;;26.90;96.70;;;;;;4912004;29;20528;-69
2023/06/23 07:34:07;;;;;;;15.52;6.40;;;26.80;96.70;;;;;;4934281;29;20139;-71
2023/06/23 07:36:35;;;;;;;11.95;6.15;;;26.80;96.70;;;;;;4917133;29;20062;-72
2023/06/23 07:39:03;;;;;;;17.65;5.72;;;27.00;96.70;;;;;;4928297;29;20052;-69
2023/06/23 07:41:31;;;;;;;14.32;5.97;;;27.00;96.70;;;;;;4916086;29;20055;-69
2023/06/23 07:44:00;;;;;;;13.45;5.57;;;27.10;96.70;;;;;;4925462;29;20395;-72
2023/06/23 07:46:29;;;;;;;17.35;6.07;;;27.20;96.70;;;;;;4930845;29;20410;-72
2023/06/23 07:48:57;;;;;;;16.90;6.05;;;27.30;96.70;;;;;;4928178;29;20114;-69
2023/06/23 07:51:29;;;;;;;15.55;6.72;;;27.50;96.70;;;;;;4929099;29;20588;-69
2023/06/23 07:53:57;;;;;;;12.25;5.78;;;27.50;96.70;;;;;;4928270;29;20102;-68
2023/06/23 07:56:33;;;;;;;;;;;27.70;96.70;;;;;;4928673;29;20076;-68
2023/06/23 07:59:03;;;;;;;15.25;6.22;;;27.90;96.70;;;;;;4925935;29;19931;-68
2023/06/23 08:01:32;;;;;;;18.77;6.63;;;27.90;96.70;;;;;;4927729;29;20059;-68
2023/06/23 08:04:16;;;;;;;18.50;7.00;;;27.70;96.70;;;;;;4927933;29;20044;-68
2023/06/23 08:06:44;;;;;;;19.10;6.65;;;27.40;96.70;;;;;;4928408;29;20043;-71
2023/06/23 08:09:12;;;;;;;14.75;7.13;;;27.30;96.70;;;;;;4927468;29;20078;-71
2023/06/23 08:11:40;;;;;;;18.15;6.60;;;27.30;96.70;;;;;;4928038;29;20062;-71
2023/06/23 08:14:10;;;;;;;14.85;6.57;;;27.20;96.70;;;;;;4928174;29;20047;-71
2023/06/23 08:16:38;;;;;;;16.70;6.53;;;27.30;96.70;;;;;;4927690;29;20566;-71
2023/06/23 08:19:35;;;;;;;15.13;6.05;;;27.40;96.70;;;;;;4924525;29;20502;-71
2023/06/23 08:22:03;;;;;;;17.87;5.43;;;27.60;96.70;;;;;;4931717;29;20069;-71
2023/06/23 08:24:31;;;;;;;20.92;5.97;;;27.80;96.70;;;;;;4929423;29;20040;-71
2023/06/23 08:26:59;;;;;;;16.88;5.90;;;28.00;96.70;;;;;;4933512;29;20039;-68
2023/06/23 08:29:28;;;;;;;17.13;6.32;;;28.00;96.70;;;;;;4919007;29;20050;-68
2023/06/23 08:31:56;;;;;;;18.13;6.65;;;28.00;96.70;;;;;;4926395;29;20213;-68
2023/06/23 08:34:24;;;;;;;18.88;6.25;;;27.80;96.70;;;;;;4927357;29;20131;-68
2023/06/23 08:36:53;;;;;;;14.52;5.50;;;27.90;96.70;;;;;;4928010;29;20111;-68
2023/06/23 08:39:21;;;;;;;16.20;5.90;;;28.00;96.70;;;;;;4910095;29;20135;-68
2023/06/23 08:41:50;;;;;;;15.63;5.55;;;28.00;96.70;;;;;;4925441;29;20047;-68
2023/06/23 08:44:24;;;;;;;11.13;5.00;;;28.10;96.70;;;;;;4920171;29;20185;-68
2023/06/23 08:46:58;;;;;;;15.00;5.47;;;28.00;96.70;;;;;;4927239;29;20402;-71
2023/06/23 08:49:49;;;;;;;14.18;4.85;;;28.10;96.70;;;;;;4927011;29;20043;-69
2023/06/23 08:52:20;;;;;;;13.82;5.13;;;28.10;96.70;;;;;;4898896;29;21409;-68
2023/06/23 08:54:48;;;;;;;18.70;4.88;;;28.10;96.70;;;;;;4904356;29;20204;-72
2023/06/23 08:57:16;;;;;;;17.60;5.88;;;28.10;96.70;;;;;;4904745;29;20056;-69
2023/06/23 08:59:44;;;;;;;11.27;5.30;;;28.10;96.70;;;;;;4904498;29;20063;-69
2023/06/23 09:02:13;;;;;;;15.15;5.75;;;28.20;96.70;;;;;;4905159;29;20862;-72
2023/06/23 09:04:41;;;;;;;12.98;4.93;;;28.20;96.70;;;;;;4904479;29;20066;-70
2023/06/23 09:07:09;;;;;;;14.38;5.32;;;28.20;96.70;;;;;;4907611;29;20135;-69
2023/06/23 09:09:37;;;;;;;13.02;5.60;;;28.10;96.70;;;;;;4887391;29;20054;-70
2023/06/23 09:12:06;;;;;;;14.27;5.18;;;28.20;96.70;;;;;;4904379;29;20278;-69
2023/06/23 09:14:36;;;;;;;14.13;5.60;;;28.00;96.70;;;;;;4887495;29;20040;-69
2023/06/23 09:17:04;;;;;;;20.08;5.45;;;28.00;96.70;;;;;;4916654;29;20060;-69
2023/06/23 09:19:34;;;;;;;11.40;5.30;;;28.10;96.70;;;;;;4915168;29;20044;-68
2023/06/23 09:22:03;;;;;;;12.43;4.90;;;28.20;96.70;;;;;;4926230;29;20055;-68
2023/06/23 09:24:40;;;;;;;14.73;5.32;;;28.30;96.70;;;;;;4919219;29;20071;-68
2023/06/23 09:27:08;;;;;;;15.05;5.40;;;28.30;96.70;;;;;;4925231;29;20046;-68
2023/06/23 09:29:37;;;;;;;12.95;5.28;;;28.40;96.70;;;;;;4935216;28;20126;-68
2023/06/23 09:32:08;;;;;;;15.82;5.95;;;28.40;96.70;;;;;;4923205;29;20058;-68
2023/06/23 09:34:39;;;;;;;17.80;5.40;;;28.50;96.70;;;;;;4921381;29;20051;-68
2023/06/23 09:37:09;;;;;;;13.40;6.25;;;28.40;96.70;;;;;;4929328;29;20107;-68
2023/06/23 09:39:38;;;;;;;16.80;5.95;;;28.30;96.70;;;;;;4925156;29;20056;-68
2023/06/23 09:42:08;;;;;;;12.70;4.82;;;28.40;96.70;;;;;;4926103;29;20071;-68
2023/06/23 09:44:38;;;;;;;10.57;5.35;;;28.50;96.70;;;;;;4926036;29;20048;-69
2023/06/23 09:47:07;;;;;;;16.38;5.75;;;28.60;96.70;;;;;;4908919;29;20557;-69
2023/06/23 09:49:40;;;;;;;12.43;5.15;;;28.70;96.70;;;;;;4926105;29;20498;-68
2023/06/23 09:52:11;;;;;;;11.30;4.95;;;28.90;96.70;;;;;;4926060;29;20058;-68
2023/06/23 09:54:41;;;;;;;14.77;6.25;;;28.90;96.70;;;;;;4925412;29;20066;-68
2023/06/23 09:57:12;;;;;;;14.73;5.75;;;28.90;96.70;;;;;;4925778;29;20051;-68
2023/06/23 09:59:41;;;;;;;12.63;5.00;;;29.00;96.70;;;;;;4908610;29;20079;-68
2023/06/23 10:02:18;;;;;;;14.25;5.25;;;29.10;96.70;;;;;;4907571;29;20044;-68
2023/06/23 10:04:49;;;;;;;11.65;5.47;;;29.20;96.70;;;;;;4917965;29;20155;-68
2023/06/23 10:07:21;;;;;;;10.27;5.20;;;29.10;96.70;;;;;;4925656;29;20509;-68
2023/06/23 10:09:51;;;;;;;14.25;5.35;;;29.20;96.70;;;;;;4923378;29;20072;-68
2023/06/23 10:12:26;;;;;;;14.15;6.13;;;29.30;96.70;;;;;;4908057;29;20071;-68
2023/06/23 10:14:56;;;;;;;11.77;5.40;;;29.30;96.70;;;;;;4925534;29;20048;-68
2023/06/23 10:17:24;;;;;;;10.45;4.82;;;29.40;96.70;;;;;;4925349;29;20047;-68
2023/06/23 10:19:55;;;;;;;12.45;5.28;;;29.50;96.70;;;;;;4925439;29;20106;-68
2023/06/23 10:22:24;;;;;;;12.75;5.85;;;29.50;96.70;;;;;;4925622;29;20426;-68
2023/06/23 10:24:53;;;;;;;9.60;5.32;;;29.50;96.70;;;;;;4921681;29;20128;-68
2023/06/23 10:27:23;;;;;;;13.45;5.38;;;29.50;96.70;;;;;;4918058;29;20475;-68
2023/06/23 10:29:55;;;;;;;14.55;4.90;;;29.70;96.70;;;;;;4908311;29;20047;-68
2023/06/23 10:32:27;;;;;;;11.98;4.75;;;29.80;96.70;;;;;;4908071;29;20071;-68
2023/06/23 10:34:58;;;;;;;11.00;4.35;;;29.80;96.70;;;;;;4923383;29;20047;-68
2023/06/23 10:37:27;;;;;;;10.52;4.22;;;30.00;96.70;;;;;;4924468;29;20464;-68
2023/06/23 10:40:18;;;;;;;8.18;4.50;;;30.00;96.70;;;;;;4924984;29;20039;-68
2023/06/23 10:42:49;;;;;;;7.55;4.00;;;29.90;96.70;;;;;;4923738;29;20482;-68
2023/06/23 10:45:17;;;;;;;9.68;4.55;;;29.90;96.70;;;;;;4923907;29;20055;-68
2023/06/23 10:47:45;;;;;;;12.88;4.18;;;30.00;96.70;;;;;;4924271;29;20430;-68
2023/06/23 10:50:15;;;;;;;4.93;3.33;;;30.10;96.70;;;;;;4924654;29;20062;-68
2023/06/23 10:52:43;;;;;;;12.25;3.78;;;30.30;96.70;;;;;;4925281;29;20047;-68
2023/06/23 10:55:38;;;;;;;8.82;3.92;;;30.40;96.70;;;;;;4923694;29;20051;-68
2023/06/23 10:58:19;;;;;;;10.40;3.38;;;30.40;96.70;;;;;;4925292;29;20573;-68
2023/06/23 11:01:00;;;;;;;9.55;3.88;;;30.70;96.70;;;;;;4925045;29;20047;-68
2023/06/23 11:03:29;;;;;;;12.05;4.35;;;30.60;96.70;;;;;;4906331;29;20064;-69
2023/06/23 11:05:59;;;;;;;8.90;4.38;;;30.70;96.70;;;;;;4917739;29;20043;-68
2023/06/23 11:08:31;;;;;;;9.43;3.35;;;30.70;96.70;;;;;;4924973;29;20051;-68
2023/06/23 11:11:03;;;;;;;10.07;3.20;;;30.80;96.70;;;;;;4907893;29;20055;-68
2023/06/23 11:13:37;;;;;;;7.28;3.70;;;30.90;96.70;;;;;;4907517;29;20154;-68
2023/06/23 11:16:05;;;;;;;10.10;3.70;;;30.90;96.70;;;;;;4924912;29;20047;-68
2023/06/23 11:18:34;;;;;;;8.00;3.80;;;30.80;96.70;;;;;;4923033;29;20051;-68
2023/06/23 11:21:15;;;;;;;11.65;4.00;;;30.80;96.70;;;;;;4927196;29;20118;-68
2023/06/23 11:24:16;;;;;;;9.50;4.18;;;30.80;96.70;;;;;;4910116;29;20055;-68
2023/06/23 11:26:51;;;;;;;10.52;3.92;;;31.00;96.70;;;;;;4906177;29;20581;-69
2023/06/23 11:29:20;;;;;;;11.02;4.60;;;30.70;96.70;;;;;;4924807;29;20115;-68
2023/06/23 11:32:19;;;;;;;8.93;4.00;;;30.90;96.70;;;;;;4925425;29;20044;-68
2023/06/23 11:34:55;;;;;;;11.52;4.20;;;30.90;96.70;;;;;;4881882;29;20056;-68
2023/06/23 11:37:26;;;;;;;9.10;4.00;;;30.40;96.70;;;;;;4885309;29;20131;-68
2023/06/23 11:39:55;;;;;;;8.63;4.07;;;30.00;96.70;;;;;;4888042;29;20140;-68
2023/06/23 11:42:24;;;;;;;10.85;3.92;;;30.10;96.70;;;;;;4887472;29;20101;-68
2023/06/23 11:44:56;;;;;;;12.63;4.32;;;30.30;96.70;;;;;;4887449;29;20048;-68
2023/06/23 11:47:25;;;;;;;10.65;4.35;;;30.40;96.70;;;;;;4887568;29;20049;-68
2023/06/23 11:49:54;;;;;;;12.20;3.58;;;30.40;96.70;;;;;;4887260;29;20197;-68
2023/06/23 11:52:23;;;;;;;9.27;3.30;;;30.40;96.70;;;;;;4887136;29;20139;-68
2023/06/23 11:54:51;;;;;;;12.02;4.28;;;30.30;96.70;;;;;;4887276;29;20052;-68
2023/06/23 11:57:20;;;;;;;9.32;4.03;;;30.10;96.70;;;;;;4887475;29;20049;-68
2023/06/23 11:59:48;;;;;;;9.40;3.88;;;30.20;96.70;;;;;;4887428;29;20415;-68
2023/06/23 12:02:16;;;;;;;9.18;3.53;;;30.20;96.70;;;;;;4887186;29;20053;-68
2023/06/23 12:04:44;;;;;;;9.88;4.10;;;30.10;96.70;;;;;;4886961;29;20932;-68
2023/06/23 12:07:13;;;;;;;7.30;3.10;;;30.10;96.70;;;;;;4886804;29;20052;-68
2023/06/23 12:09:42;;;;;;;11.70;4.68;;;30.20;96.70;;;;;;4918588;29;20094;-68
2023/06/23 12:12:11;;;;;;;10.85;4.10;;;30.10;96.70;;;;;;4928030;29;20051;-68
2023/06/23 12:14:44;;;;;;;11.25;3.80;;;30.40;96.70;;;;;;4926010;29;20055;-68
2023/06/23 12:17:12;;;;;;;7.00;3.70;;;30.80;96.70;;;;;;4927298;29;20048;-68
2023/06/23 12:19:44;;;;;;;7.97;3.47;;;30.70;96.70;;;;;;4927922;29;20055;-68
2023/06/23 12:22:17;;;;;;;7.95;3.50;;;30.70;96.70;;;;;;4911028;29;20052;-68
2023/06/23 12:24:49;;;;;;;11.95;4.43;;;30.80;96.70;;;;;;4927372;29;20048;-68
2023/06/23 12:27:18;;;;;;;14.60;4.22;;;31.00;96.70;;;;;;4927298;29;20052;-68
2023/06/23 12:29:45;;;;;;;8.35;3.42;;;31.20;96.70;;;;;;4927585;29;20043;-68
2023/06/23 12:32:16;;;;;;;10.63;3.80;;;31.10;96.70;;;;;;4926145;29;20517;-67
2023/06/23 12:34:45;;;;;;;9.15;3.45;;;30.80;96.70;;;;;;4927278;29;20054;-68
2023/06/23 12:37:16;;;;;;;6.75;3.20;;;30.70;96.70;;;;;;4925009;29;20040;-68
2023/06/23 12:39:52;;;;;;;10.45;2.90;;;30.60;96.70;;;;;;4908802;29;20079;-68
2023/06/23 12:42:22;;;;;;;7.70;3.00;;;30.70;96.70;;;;;;4910381;29;20052;-68
2023/06/23 12:44:50;;;;;;;12.52;3.22;;;30.60;96.70;;;;;;4927224;29;20467;-67
2023/06/23 12:47:19;;;;;;;7.88;2.90;;;30.70;96.70;;;;;;4926200;29;20040;-68
2023/06/23 12:49:49;;;;;;;6.53;3.00;;;31.00;96.70;;;;;;4927173;29;20066;-68
2023/06/23 12:52:17;;;;;;;8.88;3.20;;;31.00;96.70;;;;;;4908351;29;20047;-68
2023/06/23 12:54:45;;;;;;;6.75;2.60;;;30.80;96.70;;;;;;4926494;29;20043;-68
2023/06/23 12:57:15;;;;;;;6.25;2.58;;;30.50;96.70;;;;;;4926786;29;20693;-68
2023/06/23 12:59:43;;;;;;;6.00;2.75;;;30.00;96.70;;;;;;4909061;29;20166;-67
2023/06/23 13:02:18;;;;;;;8.23;2.53;;;29.50;96.70;;;;;;4927285;29;20083;-68
2023/06/23 13:04:47;;;;;;;7.15;3.00;;;29.30;96.70;;;;;;4926521;29;20126;-67
2023/06/23 13:07:15;;;;;;;5.07;2.30;;;29.30;96.70;;;;;;4927059;29;20047;-68